createdAt,value
2022-12-13T00:02:11.437Z,-2.60
2022-12-13T00:07:12.286Z,-2.64
2022-12-13T00:12:13.101Z,-2.62
2022-12-13T00:17:15.260Z,-2.64
2022-12-13T00:22:16.833Z,-2.85
2022-12-13T00:27:17.617Z,-2.72
2022-12-13T00:32:19.860Z,-2.65
2022-12-13T00:37:20.727Z,-2.70
2022-12-13T00:42:21.677Z,-2.75
2022-12-13T00:47:23.859Z,-2.78
2022-12-13T00:52:24.704Z,-2.73
2022-12-13T00:57:25.508Z,-2.69
2022-12-13T01:02:27.863Z,-2.68
2022-12-13T01:07:28.702Z,-2.74
2022-12-13T01:12:29.547Z,-2.71
2022-12-13T01:17:31.764Z,-2.63
2022-12-13T01:22:32.551Z,-2.62
2022-12-13T01:27:33.601Z,-2.56
2022-12-13T01:32:36.105Z,-2.65
2022-12-13T01:37:37.529Z,-2.59
2022-12-13T01:42:39.130Z,-2.54
2022-12-13T01:47:45.842Z,-2.64
2022-12-13T01:52:47.652Z,-2.76
2022-12-13T01:57:52.877Z,-2.71
2022-12-13T02:02:58.640Z,-2.66
2022-12-13T02:08:01.207Z,-2.65
2022-12-13T02:13:02.149Z,-2.69
2022-12-13T02:18:26.309Z,-2.66
2022-12-13T02:23:55.335Z,-2.68
2022-12-13T02:29:29.997Z,-2.79
2022-12-13T02:34:37.870Z,-2.74
2022-12-13T02:39:43.216Z,-2.98
2022-12-13T02:44:52.187Z,-2.86
2022-12-13T02:50:00.121Z,-2.93
2022-12-13T02:55:01.030Z,-2.86
2022-12-13T03:00:06.757Z,-2.80
2022-12-13T03:05:39.104Z,-2.88
2022-12-13T03:10:48.790Z,-2.94
2022-12-13T03:15:56.836Z,-3.01
2022-12-13T03:21:00.971Z,-2.91
2022-12-13T03:26:05.940Z,-2.95
2022-12-13T03:31:08.051Z,-3.15
2022-12-13T03:36:11.503Z,-3.16
2022-12-13T03:41:16.191Z,-3.11
2022-12-13T03:46:17.373Z,-3.16
2022-12-13T03:51:19.575Z,-3.18
2022-12-13T03:56:20.366Z,-3.38
2022-12-13T04:01:22.227Z,-3.42
2022-12-13T04:06:28.584Z,-3.53
2022-12-13T04:12:04.368Z,-3.55
2022-12-13T04:17:05.480Z,-3.54
2022-12-13T04:22:07.709Z,-3.76
2022-12-13T04:27:08.626Z,-3.93
2022-12-13T04:32:27.036Z,-3.86
2022-12-13T04:37:29.662Z,-4.03
2022-12-13T04:42:31.564Z,-4.03
2022-12-13T04:47:32.393Z,-4.10
2022-12-13T04:52:34.615Z,-4.11
2022-12-13T04:57:35.584Z,-4.14
2022-12-13T05:02:36.433Z,-4.11
2022-12-13T05:07:42.297Z,-4.11
2022-12-13T05:12:43.828Z,-4.19
2022-12-13T05:17:44.634Z,-4.13
2022-12-13T05:22:46.769Z,-4.07
2022-12-13T05:27:47.679Z,-4.19
2022-12-13T05:32:48.442Z,-4.09
2022-12-13T05:37:53.492Z,-3.85
2022-12-13T05:43:01.169Z,-4.22
2022-12-13T05:48:02.626Z,-4.25
2022-12-13T05:53:06.454Z,-4.33
2022-12-13T05:58:13.419Z,-4.40
2022-12-13T06:03:14.395Z,-4.56
2022-12-13T06:08:24.803Z,-4.73
2022-12-13T06:13:31.924Z,-4.88
2022-12-13T06:18:34.628Z,-5.06
2022-12-13T06:23:37.339Z,-5.18
2022-12-13T06:28:38.220Z,-5.37
2022-12-13T06:33:39.098Z,-5.52
2022-12-13T06:38:43.066Z,-5.68
2022-12-13T06:43:46.580Z,-5.64
2022-12-13T06:48:47.451Z,-5.70
2022-12-13T06:53:49.677Z,-5.86
2022-12-13T06:58:50.505Z,-5.89
2022-12-13T07:03:51.333Z,-5.94
2022-12-13T07:08:55.845Z,-6.01
2022-12-13T07:13:57.436Z,-5.99
2022-12-13T07:19:01.085Z,-6.04
2022-12-13T07:24:03.716Z,-6.07
2022-12-13T07:29:11.337Z,-6.04
2022-12-13T07:34:15.577Z,-6.01
2022-12-13T07:39:18.104Z,-5.99
2022-12-13T07:44:20.258Z,-5.89
2022-12-13T07:49:21.395Z,-5.78
2022-12-13T07:54:23.708Z,-5.63
2022-12-13T07:59:28.299Z,-5.47
2022-12-13T08:04:37.710Z,-5.32
2022-12-13T08:09:41.801Z,-5.38
2022-12-13T08:14:42.599Z,-5.38
2022-12-13T08:19:43.657Z,-5.24
2022-12-13T08:24:45.839Z,-5.30
2022-12-13T08:29:46.672Z,-5.32
2022-12-13T08:34:47.630Z,-5.23
2022-12-13T08:39:49.771Z,-5.10
2022-12-13T08:44:52.054Z,-5.01
2022-12-13T08:49:54.976Z,-5.06
2022-12-13T08:54:57.366Z,-4.95
2022-12-13T08:59:58.236Z,-5.30
2022-12-13T09:05:00.131Z,-5.14
2022-12-13T09:10:25.288Z,-5.06
2022-12-13T09:15:24.467Z,-5.15
2022-12-13T09:20:29.421Z,-4.98
2022-12-13T09:25:36.985Z,-4.95
2022-12-13T09:30:39.636Z,-3.96
2022-12-13T09:35:40.738Z,-4.51
2022-12-13T09:40:46.722Z,-4.82
2022-12-13T09:45:50.436Z,-4.78
2022-12-13T09:51:15.909Z,-4.74
2022-12-13T09:56:22.344Z,-4.59
2022-12-13T10:01:24.113Z,-4.51
2022-12-13T10:06:28.687Z,-4.39
2022-12-13T10:11:32.210Z,-4.33
2022-12-13T10:16:46.757Z,-4.24
2022-12-13T10:21:48.698Z,-4.13
2022-12-13T10:26:51.012Z,-4.01
2022-12-13T10:31:53.618Z,-3.96
2022-12-13T10:36:59.508Z,-3.85
2022-12-13T10:42:06.174Z,-3.71
2022-12-13T10:47:17.261Z,-3.64
2022-12-13T10:52:30.545Z,-3.57
2022-12-13T10:57:34.973Z,-3.50
2022-12-13T11:02:41.604Z,-3.33
2022-12-13T11:07:42.670Z,-3.26
2022-12-13T11:12:44.939Z,-3.07
2022-12-13T11:17:55.767Z,-2.92
2022-12-13T11:23:02.925Z,-2.81
2022-12-13T11:28:26.396Z,-2.74
2022-12-13T11:33:48.575Z,-2.70
2022-12-13T11:39:04.348Z,-2.57
2022-12-13T11:44:13.767Z,-2.49
2022-12-13T11:49:18.079Z,-2.34
2022-12-13T11:54:28.125Z,-2.31
2022-12-13T11:59:41.716Z,-2.24
2022-12-13T12:04:47.956Z,-2.20
2022-12-13T12:09:52.785Z,-2.09
2022-12-13T12:15:05.263Z,-2.01
2022-12-13T12:20:23.525Z,-2.00
2022-12-13T12:25:32.276Z,-2.02
2022-12-13T12:30:46.629Z,-1.94
2022-12-13T12:35:59.426Z,-2.09
2022-12-13T12:41:34.172Z,-1.93
2022-12-13T12:47:09.271Z,-1.88
2022-12-13T12:52:22.914Z,-1.92
2022-12-13T12:57:39.392Z,-1.85
2022-12-13T13:02:47.731Z,-1.83
2022-12-13T13:07:54.742Z,-1.88
2022-12-13T13:13:11.589Z,-1.86
2022-12-13T13:18:49.766Z,-1.90
2022-12-13T13:24:06.427Z,-1.93
2022-12-13T13:29:38.837Z,-1.90
2022-12-13T13:34:47.773Z,-1.93
2022-12-13T13:40:00.574Z,-1.93
2022-12-13T13:45:23.736Z,-2.00
2022-12-13T13:51:08.652Z,-1.94
2022-12-13T13:56:33.620Z,-1.89
2022-12-13T14:02:10.894Z,-1.80
2022-12-13T14:07:56.288Z,-1.90
2022-12-13T14:13:33.698Z,-2.08
2022-12-13T14:19:21.359Z,-2.15
2022-12-13T14:24:30.898Z,-2.41
2022-12-13T14:29:38.742Z,-2.53
2022-12-13T14:34:40.464Z,-2.54
2022-12-13T14:39:46.149Z,-2.76
2022-12-13T14:44:48.633Z,-2.81
2022-12-13T14:49:55.396Z,-2.89
2022-12-13T14:54:58.748Z,-3.17
2022-12-13T15:00:20.765Z,-3.27
2022-12-13T15:05:28.857Z,-3.21
2022-12-13T15:10:38.539Z,-3.33
2022-12-13T15:15:40.858Z,-3.49
2022-12-13T15:20:43.038Z,-3.60
2022-12-13T15:25:53.777Z,-3.70
2022-12-13T15:30:57.363Z,-3.82
2022-12-13T15:36:13.258Z,-3.85
2022-12-13T15:41:18.891Z,-3.89
2022-12-13T15:46:27.150Z,-3.96
2022-12-13T15:51:30.168Z,-4.05
2022-12-13T15:56:34.081Z,-4.09
2022-12-13T16:01:37.458Z,-4.08
2022-12-13T16:06:38.478Z,-4.14
2022-12-13T16:11:49.540Z,-4.19
2022-12-13T16:16:52.125Z,-4.27
2022-12-13T16:21:52.991Z,-4.42
2022-12-13T16:26:53.746Z,-4.43
2022-12-13T16:32:01.509Z,-4.58
2022-12-13T16:37:26.465Z,-4.27
2022-12-13T16:42:29.229Z,-4.49
2022-12-13T16:47:43.160Z,-4.74
2022-12-13T16:52:47.219Z,-4.92
2022-12-13T16:57:59.025Z,-5.00
2022-12-13T17:03:02.141Z,-5.04
2022-12-13T17:08:03.769Z,-5.05
2022-12-13T17:13:04.619Z,-5.04
2022-12-13T17:18:07.083Z,-5.19
2022-12-13T17:23:10.883Z,-5.23
2022-12-13T17:28:15.590Z,-5.28
2022-12-13T17:33:17.747Z,-5.34
2022-12-13T17:38:18.560Z,-5.38
2022-12-13T17:43:28.664Z,-5.47
2022-12-13T17:48:40.755Z,-5.50
2022-12-13T17:53:43.884Z,-5.61
2022-12-13T17:58:45.345Z,-5.70
2022-12-13T18:03:48.862Z,-5.86
2022-12-13T18:08:49.959Z,-5.87
2022-12-13T18:13:55.033Z,-5.90
2022-12-13T18:18:58.514Z,-6.00
2022-12-13T18:24:01.153Z,-6.05
2022-12-13T18:29:02.702Z,-6.14
2022-12-13T18:34:05.108Z,-6.23
2022-12-13T18:39:06.413Z,-6.26
2022-12-13T18:44:09.012Z,-6.33
2022-12-13T18:49:12.194Z,-6.45
2022-12-13T18:54:13.035Z,-5.54
2022-12-13T18:59:19.812Z,-5.96
2022-12-13T19:04:55.697Z,-6.40
2022-12-13T19:09:56.688Z,-6.60
2022-12-13T19:14:57.504Z,-6.76
2022-12-13T19:20:00.011Z,-6.76
2022-12-13T19:25:01.021Z,-6.83
2022-12-13T19:30:01.952Z,-6.94
2022-12-13T19:35:04.276Z,-6.92
2022-12-13T19:40:05.697Z,-7.00
2022-12-13T19:45:07.483Z,-7.04
2022-12-13T19:50:11.132Z,-7.09
2022-12-13T19:55:12.018Z,-7.11
2022-12-13T20:00:14.345Z,-7.17
2022-12-13T20:05:16.793Z,-7.24
2022-12-13T20:10:17.924Z,-7.25
2022-12-13T20:15:19.244Z,-7.29
2022-12-13T20:20:23.793Z,-7.32
2022-12-13T20:25:26.795Z,-7.38
2022-12-13T20:30:29.734Z,-7.26
2022-12-13T20:35:31.876Z,-7.41
2022-12-13T20:40:34.831Z,-7.44
2022-12-13T20:45:35.661Z,-7.43
2022-12-13T20:50:37.809Z,-7.49
2022-12-13T20:55:38.819Z,-7.55
2022-12-13T21:00:39.804Z,-7.59
2022-12-13T21:05:47.871Z,-7.63
2022-12-13T21:10:48.702Z,-7.71
2022-12-13T21:15:49.559Z,-7.71
2022-12-13T21:20:57.315Z,-7.75
2022-12-13T21:25:58.183Z,-7.75
2022-12-13T21:31:00.076Z,-7.78
2022-12-13T21:36:11.495Z,-7.80
2022-12-13T21:41:13.448Z,-7.79
2022-12-13T21:46:16.506Z,-7.76
2022-12-13T21:51:21.307Z,-7.80
2022-12-13T21:56:41.111Z,-7.80
2022-12-13T22:02:03.623Z,-7.78
2022-12-13T22:07:07.789Z,-7.76
2022-12-13T22:12:09.956Z,-7.71
2022-12-13T22:17:10.851Z,-7.75
2022-12-13T22:22:13.094Z,-7.73
2022-12-13T22:27:14.076Z,-7.73
2022-12-13T22:32:14.907Z,-7.70
2022-12-13T22:37:17.217Z,-7.73
2022-12-13T22:42:18.042Z,-7.64
2022-12-13T22:47:19.182Z,-7.69
2022-12-13T22:52:21.350Z,-7.66
2022-12-13T22:57:22.167Z,-7.66
2022-12-13T23:02:23.068Z,-7.61
2022-12-13T23:07:25.270Z,-7.57
2022-12-13T23:12:52.109Z,-7.48
2022-12-13T23:17:52.927Z,-7.33
2022-12-13T23:22:55.064Z,-7.25
2022-12-13T23:27:55.985Z,-7.22
2022-12-13T23:32:56.866Z,-7.14
2022-12-13T23:37:59.036Z,-7.06
2022-12-13T23:42:59.875Z,-7.02
2022-12-13T23:48:00.663Z,-6.99
2022-12-13T23:53:03.259Z,-6.90
2022-12-13T23:58:06.300Z,-6.67
